PWSweather.com
Personal Weather Stations
Station Observations
COONRAPIDS
Minneapolis, MN 55433

Minneapolis, MN 55433

Lat: 45.187721, Lon: -93.36828

Elevation: 898

Station Type: Davis Vantage Pro 2

High Low Average
Temperature -3.6°F-19.8°C -17.2°F-27.3°C -10.1°F-23.4°C
Dew Point -15.7°F-26.5°C -24.3°F-31.3°C -19.2°F-28.4°C
Winds 2.3 mph 3.7 kmh Calm Calm 1.0 mph W1.6 kmh W
Wind Gusts 9.2 mph14.8 kmh -- 2.0 mph3.2 kmh
Humidity 71% 54% 63%
Pressure 30.90 in1046.4 mb 30.76 in1041.7 mb -
Precipitation 0.00 in0.0 mm - -
Hour Temp Dew Point Humidity Winds Wind Gusts Pressure Precip Precip Rate Daily Precip Total
12:00 AM -7.7°F-22.1°C -16.4°F-26.9°C 65% 1.2 mph NE1.9 kmh NE 2.3 mph3.7 kmh 30.77 in1042.0 mb - 0.00 in0.0 mm 0.00 in0.0 mm
12:10 AM -7.7°F-22.1°C -16.4°F-26.9°C 65% Calm Calm -- 30.77 in1042.0 mb - 0.00 in0.0 mm 0.00 in0.0 mm
12:20 AM -7.7°F-22.1°C -16.4°F-26.9°C 65% Calm Calm -- 30.77 in1042.0 mb - 0.00 in0.0 mm 0.00 in0.0 mm
12:30 AM -7.7°F-22.1°C -16.4°F-26.9°C 65% Calm Calm 2.3 mph3.7 kmh 30.77 in1042.0 mb - 0.00 in0.0 mm 0.00 in0.0 mm
12:40 AM -7.9°F-22.2°C -16.5°F-26.9°C 65% Calm Calm -- 30.76 in1041.7 mb - 0.00 in0.0 mm 0.00 in0.0 mm
12:50 AM -7.9°F-22.2°C -16.5°F-26.9°C 65% Calm Calm -- 30.76 in1041.7 mb - 0.00 in0.0 mm 0.00 in0.0 mm
01:00 AM -8.0°F-22.2°C -16.6°F-27.0°C 65% Calm Calm 2.3 mph3.7 kmh 30.76 in1041.7 mb - 0.00 in0.0 mm 0.00 in0.0 mm
01:10 AM -8.1°F-22.3°C -16.7°F-27.1°C 65% Calm Calm -- 30.76 in1041.7 mb - 0.00 in0.0 mm 0.00 in0.0 mm
01:20 AM -8.1°F-22.3°C -16.7°F-27.1°C 65% Calm Calm 1.2 mph1.9 kmh 30.76 in1041.7 mb - 0.00 in0.0 mm 0.00 in0.0 mm
01:30 AM -8.2°F-22.3°C -16.8°F-27.1°C 65% Calm Calm 1.2 mph1.9 kmh 30.76 in1041.7 mb - 0.00 in0.0 mm 0.00 in0.0 mm
01:40 AM -8.3°F-22.4°C -16.9°F-27.2°C 65% Calm Calm -- 30.76 in1041.7 mb - 0.00 in0.0 mm 0.00 in0.0 mm
01:50 AM -8.4°F-22.4°C -16.7°F-27.1°C 66% Calm Calm 2.3 mph3.7 kmh 30.77 in1042.0 mb - 0.00 in0.0 mm 0.00 in0.0 mm
02:00 AM -8.5°F-22.5°C -16.8°F-27.1°C 66% Calm Calm -- 30.78 in1042.3 mb - 0.00 in0.0 mm 0.00 in0.0 mm
02:10 AM -8.5°F-22.5°C -16.8°F-27.1°C 66% Calm Calm -- 30.79 in1042.7 mb - 0.00 in0.0 mm 0.00 in0.0 mm
02:20 AM -8.6°F-22.6°C -16.9°F-27.2°C 66% 1.2 mph NW1.9 kmh NW 2.3 mph3.7 kmh 30.79 in1042.7 mb - 0.00 in0.0 mm 0.00 in0.0 mm
02:30 AM -8.8°F-22.7°C -17.1°F-27.3°C 66% Calm Calm -- 30.79 in1042.7 mb - 0.00 in0.0 mm 0.00 in0.0 mm
02:40 AM -9.0°F-22.8°C -17.6°F-27.6°C 65% Calm Calm -- 30.80 in1043.0 mb - 0.00 in0.0 mm 0.00 in0.0 mm
02:50 AM -9.2°F-22.9°C -17.5°F-27.5°C 66% 1.2 mph NNW1.9 kmh NNW 3.5 mph5.6 kmh 30.80 in1043.0 mb - 0.00 in0.0 mm 0.00 in0.0 mm
03:00 AM -9.4°F-23.0°C -17.7°F-27.6°C 66% Calm Calm 2.3 mph3.7 kmh 30.80 in1043.0 mb - 0.00 in0.0 mm 0.00 in0.0 mm
03:10 AM -9.6°F-23.1°C -17.9°F-27.7°C 66% Calm Calm -- 30.80 in1043.0 mb - 0.00 in0.0 mm 0.00 in0.0 mm
03:20 AM -9.9°F-23.3°C -18.2°F-27.9°C 66% Calm Calm 1.2 mph1.9 kmh 30.80 in1043.0 mb - 0.00 in0.0 mm 0.00 in0.0 mm
03:30 AM -10.2°F-23.4°C -18.2°F-27.9°C 67% Calm Calm 1.2 mph1.9 kmh 30.80 in1043.0 mb - 0.00 in0.0 mm 0.00 in0.0 mm
03:40 AM -10.4°F-23.6°C -18.3°F-27.9°C 67% Calm Calm 2.3 mph3.7 kmh 30.80 in1043.0 mb - 0.00 in0.0 mm 0.00 in0.0 mm
03:50 AM -10.7°F-23.7°C -18.3°F-27.9°C 68% Calm Calm -- 30.80 in1043.0 mb - 0.00 in0.0 mm 0.00 in0.0 mm
04:00 AM -10.9°F-23.8°C -18.5°F-28.1°C 68% Calm Calm -- 30.80 in1043.0 mb - 0.00 in0.0 mm 0.00 in0.0 mm
04:10 AM -11.1°F-23.9°C -18.5°F-28.1°C 69% Calm Calm 1.2 mph1.9 kmh 30.80 in1043.0 mb - 0.00 in0.0 mm 0.00 in0.0 mm
04:20 AM -11.3°F-24.1°C -18.6°F-28.1°C 69% Calm Calm 2.3 mph3.7 kmh 30.81 in1043.3 mb - 0.00 in0.0 mm 0.00 in0.0 mm
04:30 AM -11.5°F-24.2°C -18.8°F-28.2°C 69% Calm Calm -- 30.81 in1043.3 mb - 0.00 in0.0 mm 0.00 in0.0 mm
04:40 AM -11.8°F-24.3°C -19.1°F-28.4°C 69% Calm Calm 1.2 mph1.9 kmh 30.81 in1043.3 mb - 0.00 in0.0 mm 0.00 in0.0 mm
04:50 AM -12.1°F-24.5°C -19.4°F-28.6°C 69% Calm Calm 2.3 mph3.7 kmh 30.81 in1043.3 mb - 0.00 in0.0 mm 0.00 in0.0 mm
05:00 AM -12.4°F-24.7°C -19.4°F-28.6°C 70% Calm Calm -- 30.81 in1043.3 mb - 0.00 in0.0 mm 0.00 in0.0 mm
05:10 AM -12.7°F-24.8°C -19.7°F-28.7°C 70% Calm Calm -- 30.81 in1043.3 mb - 0.00 in0.0 mm 0.00 in0.0 mm
05:20 AM -12.9°F-24.9°C -20.0°F-28.9°C 70% Calm Calm -- 30.81 in1043.3 mb - 0.00 in0.0 mm 0.00 in0.0 mm
05:30 AM -13.2°F-25.1°C -20.2°F-29.0°C 70% Calm Calm -- 30.81 in1043.3 mb - 0.00 in0.0 mm 0.00 in0.0 mm
05:40 AM -13.5°F-25.3°C -20.5°F-29.2°C 70% Calm Calm 1.2 mph1.9 kmh 30.81 in1043.3 mb - 0.00 in0.0 mm 0.00 in0.0 mm
05:50 AM -13.8°F-25.4°C -20.5°F-29.2°C 71% Calm Calm 2.3 mph3.7 kmh 30.81 in1043.3 mb - 0.00 in0.0 mm 0.00 in0.0 mm
06:00 AM -14.0°F-25.6°C -20.7°F-29.3°C 71% 1.2 mph WNW1.9 kmh WNW 4.6 mph7.4 kmh 30.82 in1043.7 mb - 0.00 in0.0 mm 0.00 in0.0 mm
06:10 AM -14.3°F-25.7°C -21.0°F-29.4°C 71% Calm Calm 2.3 mph3.7 kmh 30.82 in1043.7 mb - 0.00 in0.0 mm 0.00 in0.0 mm
06:20 AM -14.6°F-25.9°C -21.3°F-29.6°C 71% Calm Calm 1.2 mph1.9 kmh 30.82 in1043.7 mb - 0.00 in0.0 mm 0.00 in0.0 mm
06:30 AM -14.8°F-26.0°C -21.7°F-29.8°C 70% Calm Calm 3.5 mph5.6 kmh 30.83 in1044.0 mb - 0.00 in0.0 mm 0.00 in0.0 mm
06:40 AM -15.1°F-26.2°C -22.0°F-30.0°C 70% Calm Calm 1.2 mph1.9 kmh 30.83 in1044.0 mb - 0.00 in0.0 mm 0.00 in0.0 mm
06:50 AM -15.4°F-26.3°C -22.3°F-30.2°C 70% Calm Calm 1.2 mph1.9 kmh 30.83 in1044.0 mb - 0.00 in0.0 mm 0.00 in0.0 mm
07:00 AM -15.6°F-26.4°C -22.5°F-30.3°C 70% 1.2 mph NW1.9 kmh NW 4.6 mph7.4 kmh 30.83 in1044.0 mb - 0.00 in0.0 mm 0.00 in0.0 mm
07:10 AM -15.8°F-26.6°C -22.7°F-30.4°C 70% 1.2 mph NW1.9 kmh NW 2.3 mph3.7 kmh 30.84 in1044.4 mb - 0.00 in0.0 mm 0.00 in0.0 mm
07:20 AM -16.1°F-26.7°C -23.3°F-30.7°C 69% Calm Calm 1.2 mph1.9 kmh 30.84 in1044.4 mb - 0.00 in0.0 mm 0.00 in0.0 mm
07:30 AM -16.3°F-26.8°C -23.5°F-30.8°C 69% Calm Calm -- 30.84 in1044.4 mb - 0.00 in0.0 mm 0.00 in0.0 mm
07:40 AM -16.5°F-26.9°C -23.7°F-30.9°C 69% Calm Calm 2.3 mph3.7 kmh 30.84 in1044.4 mb - 0.00 in0.0 mm 0.00 in0.0 mm
07:50 AM -16.7°F-27.1°C -23.6°F-30.9°C 70% Calm Calm -- 30.85 in1044.7 mb - 0.00 in0.0 mm 0.00 in0.0 mm
08:00 AM -16.9°F-27.2°C -23.8°F-31.0°C 70% 1.2 mph NW1.9 kmh NW 2.3 mph3.7 kmh 30.85 in1044.7 mb - 0.00 in0.0 mm 0.00 in0.0 mm
08:10 AM -17.0°F-27.2°C -23.9°F-31.1°C 70% Calm Calm -- 30.85 in1044.7 mb - 0.00 in0.0 mm 0.00 in0.0 mm
08:20 AM -17.2°F-27.3°C -24.1°F-31.2°C 70% Calm Calm 1.2 mph1.9 kmh 30.86 in1045.0 mb - 0.00 in0.0 mm 0.00 in0.0 mm
08:30 AM -17.2°F-27.3°C -24.1°F-31.2°C 70% Calm Calm 1.2 mph1.9 kmh 30.87 in1045.4 mb - 0.00 in0.0 mm 0.00 in0.0 mm
08:40 AM -17.2°F-27.3°C -24.3°F-31.3°C 69% Calm Calm 1.2 mph1.9 kmh 30.87 in1045.4 mb - 0.00 in0.0 mm 0.00 in0.0 mm
08:50 AM -17.1°F-27.3°C -24.2°F-31.2°C 69% Calm Calm 3.5 mph5.6 kmh 30.88 in1045.7 mb - 0.00 in0.0 mm 0.00 in0.0 mm
09:00 AM -16.9°F-27.2°C -24.0°F-31.1°C 69% Calm Calm 1.2 mph1.9 kmh 30.88 in1045.7 mb - 0.00 in0.0 mm 0.00 in0.0 mm
09:10 AM -16.5°F-26.9°C -24.0°F-31.1°C 68% Calm Calm -- 30.88 in1045.7 mb - 0.00 in0.0 mm 0.00 in0.0 mm
09:20 AM -16.1°F-26.7°C -23.5°F-30.8°C 68% 1.2 mph NW1.9 kmh NW 9.2 mph14.8 kmh 30.88 in1045.7 mb - 0.00 in0.0 mm 0.00 in0.0 mm
09:30 AM -15.6°F-26.4°C -23.4°F-30.8°C 67% 1.2 mph NW1.9 kmh NW 2.3 mph3.7 kmh 30.88 in1045.7 mb - 0.00 in0.0 mm 0.00 in0.0 mm
09:40 AM -15.1°F-26.2°C -23.1°F-30.6°C 66% 2.3 mph NW3.7 kmh NW 3.5 mph5.6 kmh 30.89 in1046.1 mb - 0.00 in0.0 mm 0.00 in0.0 mm
09:50 AM -14.9°F-26.1°C -23.2°F-30.7°C 65% Calm Calm -- 30.89 in1046.1 mb - 0.00 in0.0 mm 0.00 in0.0 mm
10:00 AM -14.6°F-25.9°C -23.0°F-30.6°C 65% 1.2 mph NNE1.9 kmh NNE 4.6 mph7.4 kmh 30.89 in1046.1 mb - 0.00 in0.0 mm 0.00 in0.0 mm
10:10 AM -14.1°F-25.6°C -22.8°F-30.4°C 64% 1.2 mph WNW1.9 kmh WNW 2.3 mph3.7 kmh 30.90 in1046.4 mb - 0.00 in0.0 mm 0.00 in0.0 mm
10:20 AM -13.8°F-25.4°C -22.4°F-30.2°C 64% 1.2 mph NW1.9 kmh NW 2.3 mph3.7 kmh 30.90 in1046.4 mb - 0.00 in0.0 mm 0.00 in0.0 mm
10:30 AM -13.4°F-25.2°C -22.4°F-30.2°C 63% 1.2 mph WNW1.9 kmh WNW 3.5 mph5.6 kmh 30.89 in1046.1 mb - 0.00 in0.0 mm 0.00 in0.0 mm
10:40 AM -13.1°F-25.1°C -22.1°F-30.1°C 63% 1.2 mph NW1.9 kmh NW 3.5 mph5.6 kmh 30.89 in1046.1 mb - 0.00 in0.0 mm 0.00 in0.0 mm
10:50 AM -12.7°F-24.8°C -22.0°F-30.0°C 62% 1.2 mph NW1.9 kmh NW 3.5 mph5.6 kmh 30.89 in1046.1 mb - 0.00 in0.0 mm 0.00 in0.0 mm
11:00 AM -12.2°F-24.6°C -21.8°F-29.9°C 61% 1.2 mph NW1.9 kmh NW 2.3 mph3.7 kmh 30.89 in1046.1 mb - 0.00 in0.0 mm 0.00 in0.0 mm
11:10 AM -11.2°F-24.0°C -20.9°F-29.4°C 61% 1.2 mph W1.9 kmh W 3.5 mph5.6 kmh 30.89 in1046.1 mb - 0.00 in0.0 mm 0.00 in0.0 mm
11:20 AM -10.6°F-23.7°C -20.7°F-29.3°C 60% Calm Calm -- 30.89 in1046.1 mb - 0.00 in0.0 mm 0.00 in0.0 mm
11:30 AM -9.8°F-23.2°C -20.3°F-29.1°C 59% 1.2 mph WNW1.9 kmh WNW 1.2 mph1.9 kmh 30.88 in1045.7 mb - 0.00 in0.0 mm 0.00 in0.0 mm
11:40 AM -9.4°F-23.0°C -20.2°F-29.0°C 58% 2.3 mph WNW3.7 kmh WNW 3.5 mph5.6 kmh 30.88 in1045.7 mb - 0.00 in0.0 mm 0.00 in0.0 mm
11:50 AM -9.3°F-22.9°C -20.1°F-28.9°C 58% 1.2 mph WSW1.9 kmh WSW -- 30.88 in1045.7 mb - 0.00 in0.0 mm 0.00 in0.0 mm
12:00 PM -8.8°F-22.7°C -19.6°F-28.7°C 58% Calm Calm 2.3 mph3.7 kmh 30.88 in1045.7 mb - 0.00 in0.0 mm 0.00 in0.0 mm
12:10 PM -8.5°F-22.5°C -19.7°F-28.7°C 57% 1.2 mph WSW1.9 kmh WSW 3.5 mph5.6 kmh 30.87 in1045.4 mb - 0.00 in0.0 mm 0.00 in0.0 mm
12:20 PM -8.3°F-22.4°C -19.4°F-28.6°C 57% Calm Calm 1.2 mph1.9 kmh 30.87 in1045.4 mb - 0.00 in0.0 mm 0.00 in0.0 mm
12:30 PM -7.6°F-22.0°C -18.8°F-28.2°C 57% 1.2 mph W1.9 kmh W 2.3 mph3.7 kmh 30.87 in1045.4 mb - 0.00 in0.0 mm 0.00 in0.0 mm
12:40 PM -7.7°F-22.1°C -19.3°F-28.5°C 56% 2.3 mph WSW3.7 kmh WSW 3.5 mph5.6 kmh 30.86 in1045.0 mb - 0.00 in0.0 mm 0.00 in0.0 mm
12:50 PM -7.3°F-21.8°C -18.9°F-28.3°C 56% 1.2 mph W1.9 kmh W 2.3 mph3.7 kmh 30.86 in1045.0 mb - 0.00 in0.0 mm 0.00 in0.0 mm
01:00 PM -7.0°F-21.7°C -18.6°F-28.1°C 56% 1.2 mph WSW1.9 kmh WSW 2.3 mph3.7 kmh 30.86 in1045.0 mb - 0.00 in0.0 mm 0.00 in0.0 mm
01:10 PM -7.0°F-21.7°C -19.0°F-28.3°C 55% 1.2 mph WNW1.9 kmh WNW 3.5 mph5.6 kmh 30.86 in1045.0 mb - 0.00 in0.0 mm 0.00 in0.0 mm
01:20 PM -6.5°F-21.4°C -18.1°F-27.8°C 56% 2.3 mph WSW3.7 kmh WSW 4.6 mph7.4 kmh 30.85 in1044.7 mb - 0.00 in0.0 mm 0.00 in0.0 mm
01:30 PM -6.0°F-21.1°C -18.0°F-27.8°C 55% 1.2 mph NW1.9 kmh NW 3.5 mph5.6 kmh 30.84 in1044.4 mb - 0.00 in0.0 mm 0.00 in0.0 mm
01:40 PM -5.4°F-20.8°C -17.8°F-27.7°C 54% 2.3 mph WNW3.7 kmh WNW 3.5 mph5.6 kmh 30.85 in1044.7 mb - 0.00 in0.0 mm 0.00 in0.0 mm
01:50 PM -5.4°F-20.8°C -17.8°F-27.7°C 54% Calm Calm 2.3 mph3.7 kmh 30.84 in1044.4 mb - 0.00 in0.0 mm 0.00 in0.0 mm
02:00 PM -5.2°F-20.7°C -17.6°F-27.6°C 54% 1.2 mph NW1.9 kmh NW 5.8 mph9.3 kmh 30.84 in1044.4 mb - 0.00 in0.0 mm 0.00 in0.0 mm
02:10 PM -4.8°F-20.4°C -16.9°F-27.2°C 55% 2.3 mph NW3.7 kmh NW 5.8 mph9.3 kmh 30.84 in1044.4 mb - 0.00 in0.0 mm 0.00 in0.0 mm
02:20 PM -4.8°F-20.4°C -16.9°F-27.2°C 55% 2.3 mph W3.7 kmh W 2.3 mph3.7 kmh 30.84 in1044.4 mb - 0.00 in0.0 mm 0.00 in0.0 mm
02:30 PM -4.7°F-20.4°C -16.4°F-26.9°C 56% 1.2 mph NW1.9 kmh NW 3.5 mph5.6 kmh 30.84 in1044.4 mb - 0.00 in0.0 mm 0.00 in0.0 mm
02:40 PM -4.0°F-20.0°C -15.8°F-26.6°C 56% Calm Calm -- 30.83 in1044.0 mb - 0.00 in0.0 mm 0.00 in0.0 mm
02:50 PM -3.6°F-19.8°C -15.7°F-26.5°C 55% 2.3 mph NW3.7 kmh NW 3.5 mph5.6 kmh 30.83 in1044.0 mb - 0.00 in0.0 mm 0.00 in0.0 mm
03:00 PM -4.2°F-20.1°C -16.6°F-27.0°C 54% Calm Calm 2.3 mph3.7 kmh 30.84 in1044.4 mb - 0.00 in0.0 mm 0.00 in0.0 mm
03:10 PM -4.5°F-20.3°C -16.6°F-27.0°C 55% 1.2 mph WSW1.9 kmh WSW 3.5 mph5.6 kmh 30.83 in1044.0 mb - 0.00 in0.0 mm 0.00 in0.0 mm
03:20 PM -4.6°F-20.3°C -16.7°F-27.1°C 55% 2.3 mph WSW3.7 kmh WSW 4.6 mph7.4 kmh 30.83 in1044.0 mb - 0.00 in0.0 mm 0.00 in0.0 mm
03:30 PM -4.5°F-20.3°C -16.6°F-27.0°C 55% 1.2 mph SW1.9 kmh SW 3.5 mph5.6 kmh 30.83 in1044.0 mb - 0.00 in0.0 mm 0.00 in0.0 mm
03:40 PM -4.7°F-20.4°C -16.5°F-26.9°C 56% 1.2 mph WSW1.9 kmh WSW 4.6 mph7.4 kmh 30.84 in1044.4 mb - 0.00 in0.0 mm 0.00 in0.0 mm
03:50 PM -4.8°F-20.4°C -16.5°F-26.9°C 56% 1.2 mph SW1.9 kmh SW 2.3 mph3.7 kmh 30.84 in1044.4 mb - 0.00 in0.0 mm 0.00 in0.0 mm
04:00 PM -4.9°F-20.5°C -16.6°F-27.0°C 56% 1.2 mph WSW1.9 kmh WSW 2.3 mph3.7 kmh 30.84 in1044.4 mb - 0.00 in0.0 mm 0.00 in0.0 mm
04:10 PM -4.9°F-20.5°C -16.3°F-26.8°C 57% Calm Calm -- 30.83 in1044.0 mb - 0.00 in0.0 mm 0.00 in0.0 mm
04:20 PM -4.9°F-20.5°C -16.3°F-26.8°C 57% Calm Calm 3.5 mph5.6 kmh 30.83 in1044.0 mb - 0.00 in0.0 mm 0.00 in0.0 mm
04:30 PM -5.0°F-20.6°C -16.3°F-26.8°C 57% Calm Calm -- 30.84 in1044.4 mb - 0.00 in0.0 mm 0.00 in0.0 mm
04:40 PM -5.0°F-20.6°C -16.0°F-26.7°C 58% Calm Calm 3.5 mph5.6 kmh 30.84 in1044.4 mb - 0.00 in0.0 mm 0.00 in0.0 mm
04:50 PM -5.2°F-20.7°C -16.2°F-26.8°C 58% Calm Calm 1.2 mph1.9 kmh 30.84 in1044.4 mb - 0.00 in0.0 mm 0.00 in0.0 mm
05:00 PM -5.4°F-20.8°C -16.0°F-26.7°C 59% Calm Calm -- 30.83 in1044.0 mb - 0.00 in0.0 mm 0.00 in0.0 mm
05:10 PM -5.6°F-20.9°C -15.9°F-26.6°C 60% Calm Calm 2.3 mph3.7 kmh 30.83 in1044.0 mb - 0.00 in0.0 mm 0.00 in0.0 mm
05:20 PM -5.7°F-20.9°C -16.0°F-26.7°C 60% Calm Calm -- 30.83 in1044.0 mb - 0.00 in0.0 mm 0.00 in0.0 mm
05:30 PM -5.8°F-21.0°C -15.7°F-26.5°C 61% 1.2 mph WSW1.9 kmh WSW 3.5 mph5.6 kmh 30.83 in1044.0 mb - 0.00 in0.0 mm 0.00 in0.0 mm
05:40 PM -5.9°F-21.1°C -15.9°F-26.6°C 61% 1.2 mph WSW1.9 kmh WSW 3.5 mph5.6 kmh 30.83 in1044.0 mb - 0.00 in0.0 mm 0.00 in0.0 mm
05:50 PM -6.1°F-21.2°C -15.8°F-26.6°C 62% Calm Calm -- 30.83 in1044.0 mb - 0.00 in0.0 mm 0.00 in0.0 mm
06:00 PM -6.5°F-21.4°C -16.1°F-26.7°C 62% Calm Calm -- 30.83 in1044.0 mb - 0.00 in0.0 mm 0.00 in0.0 mm
06:10 PM -7.1°F-21.7°C -16.4°F-26.9°C 63% 1.2 mph SW1.9 kmh SW 3.5 mph5.6 kmh 30.83 in1044.0 mb - 0.00 in0.0 mm 0.00 in0.0 mm
06:20 PM -7.5°F-21.9°C -16.5°F-26.9°C 64% 1.2 mph SW1.9 kmh SW 2.3 mph3.7 kmh 30.84 in1044.4 mb - 0.00 in0.0 mm 0.00 in0.0 mm
06:30 PM -7.8°F-22.1°C -16.8°F-27.1°C 64% 2.3 mph SW3.7 kmh SW 6.9 mph11.1 kmh 30.84 in1044.4 mb - 0.00 in0.0 mm 0.00 in0.0 mm
06:40 PM -8.0°F-22.2°C -16.6°F-27.0°C 65% Calm Calm 4.6 mph7.4 kmh 30.84 in1044.4 mb - 0.00 in0.0 mm 0.00 in0.0 mm
06:50 PM -8.3°F-22.4°C -17.0°F-27.2°C 65% 2.3 mph SW3.7 kmh SW 3.5 mph5.6 kmh 30.84 in1044.4 mb - 0.00 in0.0 mm 0.00 in0.0 mm
07:00 PM -8.6°F-22.6°C -16.9°F-27.2°C 66% 2.3 mph WSW3.7 kmh WSW 3.5 mph5.6 kmh 30.84 in1044.4 mb - 0.00 in0.0 mm 0.00 in0.0 mm
07:10 PM -8.8°F-22.7°C -17.1°F-27.3°C 66% Calm Calm 2.3 mph3.7 kmh 30.85 in1044.7 mb - 0.00 in0.0 mm 0.00 in0.0 mm
07:20 PM -9.0°F-22.8°C -17.3°F-27.4°C 66% 1.2 mph WSW1.9 kmh WSW 2.3 mph3.7 kmh 30.84 in1044.4 mb - 0.00 in0.0 mm 0.00 in0.0 mm
07:30 PM -9.1°F-22.8°C -17.4°F-27.4°C 66% 1.2 mph WSW1.9 kmh WSW 2.3 mph3.7 kmh 30.85 in1044.7 mb - 0.00 in0.0 mm 0.00 in0.0 mm
07:40 PM -9.3°F-22.9°C -17.3°F-27.4°C 67% Calm Calm -- 30.85 in1044.7 mb - 0.00 in0.0 mm 0.00 in0.0 mm
07:50 PM -9.3°F-22.9°C -17.6°F-27.6°C 66% 1.2 mph WSW1.9 kmh WSW -- 30.84 in1044.4 mb - 0.00 in0.0 mm 0.00 in0.0 mm
08:00 PM -9.4°F-23.0°C -17.7°F-27.6°C 66% Calm Calm 3.5 mph5.6 kmh 30.85 in1044.7 mb - 0.00 in0.0 mm 0.00 in0.0 mm
08:10 PM -9.5°F-23.1°C -17.8°F-27.7°C 66% 1.2 mph W1.9 kmh W 4.6 mph7.4 kmh 30.85 in1044.7 mb - 0.00 in0.0 mm 0.00 in0.0 mm
08:20 PM -9.6°F-23.1°C -17.6°F-27.6°C 67% 1.2 mph W1.9 kmh W 3.5 mph5.6 kmh 30.85 in1044.7 mb - 0.00 in0.0 mm 0.00 in0.0 mm
08:30 PM -9.8°F-23.2°C -17.8°F-27.7°C 67% 1.2 mph WSW1.9 kmh WSW 3.5 mph5.6 kmh 30.85 in1044.7 mb - 0.00 in0.0 mm 0.00 in0.0 mm
08:40 PM -9.9°F-23.3°C -17.9°F-27.7°C 67% 1.2 mph WSW1.9 kmh WSW 2.3 mph3.7 kmh 30.85 in1044.7 mb - 0.00 in0.0 mm 0.00 in0.0 mm
08:50 PM -10.0°F-23.3°C -18.0°F-27.8°C 67% 1.2 mph W1.9 kmh W 2.3 mph3.7 kmh 30.85 in1044.7 mb - 0.00 in0.0 mm 0.00 in0.0 mm
09:00 PM -10.1°F-23.4°C -17.8°F-27.7°C 68% 1.2 mph W1.9 kmh W 1.2 mph1.9 kmh 30.85 in1044.7 mb - 0.00 in0.0 mm 0.00 in0.0 mm
09:10 PM -10.2°F-23.4°C -17.9°F-27.7°C 68% Calm Calm 2.3 mph3.7 kmh 30.85 in1044.7 mb - 0.00 in0.0 mm 0.00 in0.0 mm
09:20 PM -10.3°F-23.5°C -18.0°F-27.8°C 68% 1.2 mph WSW1.9 kmh WSW 3.5 mph5.6 kmh 30.85 in1044.7 mb - 0.00 in0.0 mm 0.00 in0.0 mm
09:30 PM -10.3°F-23.5°C -17.7°F-27.6°C 69% Calm Calm 3.5 mph5.6 kmh 30.85 in1044.7 mb - 0.00 in0.0 mm 0.00 in0.0 mm
09:40 PM -10.3°F-23.5°C -17.6°F-27.6°C 69% Calm Calm 1.2 mph1.9 kmh 30.85 in1044.7 mb - 0.00 in0.0 mm 0.00 in0.0 mm
09:50 PM -10.2°F-23.4°C -17.6°F-27.6°C 69% Calm Calm 1.2 mph1.9 kmh 30.85 in1044.7 mb - 0.00 in0.0 mm 0.00 in0.0 mm
10:00 PM -10.3°F-23.5°C -17.7°F-27.6°C 69% 1.2 mph W1.9 kmh W 4.6 mph7.4 kmh 30.85 in1044.7 mb - 0.00 in0.0 mm 0.00 in0.0 mm
10:10 PM -10.3°F-23.5°C -17.7°F-27.6°C 69% 2.3 mph W3.7 kmh W 3.5 mph5.6 kmh 30.85 in1044.7 mb - 0.00 in0.0 mm 0.00 in0.0 mm
10:20 PM -10.4°F-23.6°C -17.8°F-27.7°C 69% 1.2 mph W1.9 kmh W 2.3 mph3.7 kmh 30.85 in1044.7 mb - 0.00 in0.0 mm 0.00 in0.0 mm
10:30 PM -10.5°F-23.6°C -17.9°F-27.7°C 69% 1.2 mph W1.9 kmh W 3.5 mph5.6 kmh 30.85 in1044.7 mb - 0.00 in0.0 mm 0.00 in0.0 mm
10:40 PM -10.6°F-23.7°C -17.7°F-27.6°C 70% 1.2 mph WNW1.9 kmh WNW 9.2 mph14.8 kmh 30.85 in1044.7 mb - 0.00 in0.0 mm 0.00 in0.0 mm
10:50 PM -10.5°F-23.6°C -17.6°F-27.6°C 70% 1.2 mph W1.9 kmh W 2.3 mph3.7 kmh 30.86 in1045.0 mb - 0.00 in0.0 mm 0.00 in0.0 mm
11:00 PM -10.5°F-23.6°C -17.6°F-27.6°C 70% 1.2 mph W1.9 kmh W 2.3 mph3.7 kmh 30.86 in1045.0 mb - 0.00 in0.0 mm 0.00 in0.0 mm
11:10 PM -10.6°F-23.7°C -17.7°F-27.6°C 70% 1.2 mph W1.9 kmh W 5.8 mph9.3 kmh 30.86 in1045.0 mb - 0.00 in0.0 mm 0.00 in0.0 mm
11:20 PM -10.6°F-23.7°C -17.7°F-27.6°C 70% 1.2 mph W1.9 kmh W 2.3 mph3.7 kmh 30.86 in1045.0 mb - 0.00 in0.0 mm 0.00 in0.0 mm
11:30 PM -10.6°F-23.7°C -17.7°F-27.6°C 70% Calm Calm -- 30.86 in1045.0 mb - 0.00 in0.0 mm 0.00 in0.0 mm
11:40 PM -10.6°F-23.7°C -17.7°F-27.6°C 70% 1.2 mph WNW1.9 kmh WNW 3.5 mph5.6 kmh 30.86 in1045.0 mb - 0.00 in0.0 mm 0.00 in0.0 mm
11:50 PM -10.7°F-23.7°C -17.8°F-27.7°C 70% 1.2 mph WNW1.9 kmh WNW 2.3 mph3.7 kmh 30.86 in1045.0 mb - 0.00 in0.0 mm 0.00 in0.0 mm